This is the latest recevied weather packets stored in our database for station/object W5HKR. If no packets are shown the sender has not sent any weather packets the latest 10 day(s).
| Time | Temp. | Humidity | Pressure | Rain* | Wind** | Luminosity | Snow |
|---|---|---|---|---|---|---|---|
| 1778095704 | 30° C | 67% | 982 hPa | 0 mm | - | - | - |
| 1778095405 | 18.33° C | 91% | 990.6 hPa | 0 mm | - | - | - |
| 1778095314 | 18.33° C | 91% | 990.6 hPa | 0 mm | - | - | - |
| 1778095104 | 29.44° C | 69% | 981.6 hPa | 0 mm | - | - | - |
| 1778094805 | 29.44° C | 68% | 982 hPa | 0 mm | - | - | - |
| 1778094235 | 18.33° C | 91% | 990.6 hPa | 0 mm | - | - | - |
| 1778094205 | 30° C | 69% | 981.7 hPa | 0 mm | - | - | - |
| 1778093903 | 30.56° C | 69% | 981.7 hPa | 0 mm | - | - | - |
| 1778093603 | 30° C | 69% | 981.8 hPa | 0 mm | - | - | - |
| 1778093305 | 30° C | 71% | 981.7 hPa | 0 mm | - | - | - |
| 1778093156 | 18.33° C | 91% | 990.6 hPa | 0 mm | - | - | - |
| 1778093005 | 30° C | 71% | 982.1 hPa | 0 mm | - | - | - |
| 1778092704 | 30° C | 73% | 982.3 hPa | 0 mm | - | - | - |
| 1778092405 | 29.44° C | 72% | 981.7 hPa | 0 mm | - | - | - |
| 1778092075 | 18.33° C | 91% | 990.6 hPa | 0 mm | - | - | - |
| 1778091805 | 18.33° C | 91% | 990.6 hPa | 0 mm | - | - | - |
| 1778091504 | 28.33° C | 74% | 982.2 hPa | 0 mm | - | - | - |
| 1778091205 | 18.33° C | 91% | 990.6 hPa | 0 mm | - | - | - |
| 1778090996 | 28.33° C | 74% | 982.7 hPa | 0 mm | - | - | - |
| 1778090905 | 28.33° C | 74% | 982.4 hPa | 0 mm | - | - | - |
| 1778090604 | 28.33° C | 75% | 982.2 hPa | 0 mm | - | - | - |
| 1778090306 | 27.78° C | 77% | 982.4 hPa | 0 mm | - | - | - |
| 1778090005 | 18.33° C | 91% | 990.6 hPa | 0 mm | - | - | - |
| 1778089915 | 18.33° C | 91% | 990.6 hPa | 0 mm | - | - | - |
| 1778089705 | 18.33° C | 91% | 990.6 hPa | 0 mm | - | - | - |
* Rain latest hour (hover to see other rain measurements)
** Current wind speed in m/s (hover to see current wind gust speed)